Time;durP1;ratioP1;P1;durP2;ratioP2;P2;SDS_P1;SDS_P2;PMS_P1;PMS_P2;Temp;Humidity;BMP_temperature;BMP_pressure;BME280_temperature;BME280_humidity;BME280_pressure;Samples;Min_cycle;Max_cycle;Signal;HPM_P1;HPM_P2
2023/10/25 00:01:23;;;;;;;9.20;5.40;;;;;;;-145.18;100.00;46638.91;5029988;28;20285;-69
2023/10/25 00:03:48;;;;;;;20.00;6.30;;;;;;;-145.18;100.00;46638.91;5032890;28;20045;-69
2023/10/25 00:06:14;;;;;;;10.17;6.53;;;;;;;-145.18;100.00;46640.88;5031741;28;20061;-69
2023/10/25 00:08:39;;;;;;;12.67;5.40;;;;;;;-145.18;100.00;46644.78;5031720;28;20397;-69
2023/10/25 00:11:08;;;;;;;14.53;6.00;;;;;;;-145.18;100.00;46636.94;5029224;28;20504;-69
2023/10/25 00:13:35;;;;;;;11.93;5.43;;;;;;;-145.18;100.00;46640.88;5032545;28;20022;-69
2023/10/25 00:16:01;;;;;;;10.67;5.60;;;;;;;-145.18;100.00;46640.88;5030031;28;20669;-69
2023/10/25 00:18:27;;;;;;;13.20;5.87;;;;;;;-145.18;100.00;46642.81;5032826;28;20267;-69
2023/10/25 00:20:53;;;;;;;12.97;5.37;;;;;;;-145.18;100.00;46640.88;5029339;28;20289;-69
2023/10/25 00:23:19;;;;;;;13.47;5.97;;;;;;;-145.18;100.00;46638.91;5029646;28;20053;-69
2023/10/25 00:25:47;;;;;;;11.47;5.33;;;;;;;-145.18;100.00;46642.81;5031529;28;20458;-69
2023/10/25 00:28:12;;;;;;;9.20;5.00;;;;;;;-145.18;100.00;46640.88;5031679;28;20773;-68
2023/10/25 00:30:38;;;;;;;12.70;5.27;;;;;;;-145.18;100.00;46638.91;5011887;28;20262;-68
2023/10/25 00:33:03;;;;;;;11.00;5.20;;;;;;;-145.18;100.00;46640.88;5030490;28;20022;-68
2023/10/25 00:35:29;;;;;;;10.77;5.30;;;;;;;-145.18;100.00;46644.78;5029048;28;20033;-68
2023/10/25 00:37:54;;;;;;;9.93;5.03;;;;;;;-145.18;100.00;46648.69;5032103;28;20413;-68
2023/10/25 00:40:19;;;;;;;10.70;4.63;;;;;;;-145.18;100.00;46638.91;5030983;28;20076;-69
2023/10/25 00:42:45;;;;;;;13.37;5.37;;;;;;;-145.18;100.00;46642.81;5030994;28;20037;-68
2023/10/25 00:45:10;;;;;;;11.90;5.70;;;;;;;-145.18;100.00;46644.78;5028116;28;20178;-68
2023/10/25 00:47:36;;;;;;;12.07;5.10;;;;;;;-145.18;100.00;46640.88;5030053;28;20053;-68
2023/10/25 00:50:02;;;;;;;10.67;4.70;;;;;;;-145.18;100.00;46640.88;5027765;28;20551;-68
2023/10/25 00:52:28;;;;;;;10.60;4.97;;;;;;;-145.18;100.00;46638.91;5029393;28;20071;-68
2023/10/25 00:54:54;;;;;;;12.60;4.93;;;;;;;-145.18;100.00;46636.94;5030442;28;20025;-68
2023/10/25 00:57:19;;;;;;;11.90;4.70;;;;;;;-145.18;100.00;46640.88;5029476;28;20277;-68
2023/10/25 00:59:45;;;;;;;8.33;4.13;;;;;;;-145.18;100.00;46640.88;5030133;28;20053;-68
2023/10/25 01:02:12;;;;;;;9.20;4.40;;;;;;;-145.18;100.00;46640.88;5027941;28;20029;-68
2023/10/25 01:04:37;;;;;;;11.20;4.90;;;;;;;-145.18;100.00;46640.88;5028829;28;20025;-68
2023/10/25 01:07:03;;;;;;;10.57;4.80;;;;;;;-145.18;100.00;46640.88;5029145;28;20314;-69
2023/10/25 01:09:30;;;;;;;17.53;5.17;;;;;;;-145.18;100.00;46644.78;5031429;28;20029;-68
2023/10/25 01:11:56;;;;;;;7.87;4.60;;;;;;;-145.18;100.00;46638.91;5030917;28;20025;-68
2023/10/25 01:14:26;;;;;;;7.80;4.10;;;;;;;-145.18;100.00;46640.88;5030112;28;20317;-68
2023/10/25 01:16:52;;;;;;;11.97;5.47;;;;;;;-145.18;100.00;46646.72;5027715;28;20317;-67
2023/10/25 01:19:17;;;;;;;10.03;4.60;;;;;;;-145.18;100.00;46644.78;5027748;28;20262;-68
2023/10/25 01:21:43;;;;;;;10.67;4.77;;;;;;;-145.18;100.00;46642.81;5027666;28;20105;-68
2023/10/25 01:24:09;;;;;;;7.60;4.70;;;;;;;-145.18;100.00;46640.88;5027941;28;20405;-68
2023/10/25 01:26:35;;;;;;;11.17;4.60;;;;;;;-145.18;100.00;46644.78;5031106;28;20290;-68
2023/10/25 01:29:00;;;;;;;7.33;4.87;;;;;;;-145.18;100.00;46642.81;5026921;28;20302;-68
2023/10/25 01:31:26;;;;;;;10.30;5.37;;;;;;;-145.18;100.00;46644.78;5029652;28;20029;-68
2023/10/25 01:33:51;;;;;;;9.27;4.90;;;;;;;-145.18;100.00;46644.78;5026613;28;20060;-68
2023/10/25 01:36:17;;;;;;;11.13;4.57;;;;;;;-145.18;100.00;46642.81;5029043;28;20042;-66
2023/10/25 01:38:43;;;;;;;9.93;4.37;;;;;;;-145.18;100.00;46646.72;5026924;28;20049;-67
2023/10/25 01:41:15;;;;;;;17.70;4.77;;;;;;;-145.18;100.00;46642.81;5022925;28;20332;-67
2023/10/25 01:43:41;;;;;;;10.30;4.27;;;;;;;-145.18;100.00;46646.72;5029938;28;20033;-67
2023/10/25 01:46:06;;;;;;;8.97;4.33;;;;;;;-145.18;100.00;46638.91;5029090;28;20269;-67
2023/10/25 01:48:32;;;;;;;6.93;4.90;;;;;;;-145.18;100.00;46642.81;5026320;28;20060;-67
2023/10/25 01:50:57;;;;;;;7.90;4.00;;;;;;;-145.18;100.00;46648.69;5030829;28;20041;-67
2023/10/25 01:53:22;;;;;;;12.40;4.70;;;;;;;-145.18;100.00;46646.72;5029679;28;20505;-67
2023/10/25 01:55:50;;;;;;;10.50;4.70;;;;;;;-145.18;100.00;46650.63;5028474;28;20075;-67
2023/10/25 01:58:16;;;;;;;10.53;4.30;;;;;;;-145.18;100.00;46646.72;5025941;28;20033;-66
2023/10/25 02:00:41;;;;;;;13.53;4.47;;;;;;;-145.18;100.00;46642.81;5030781;28;20361;-67
2023/10/25 02:03:07;;;;;;;22.83;5.10;;;;;;;-145.18;100.00;46648.69;5027427;28;20057;-67
2023/10/25 02:05:32;;;;;;;10.53;4.67;;;;;;;-145.18;100.00;46644.78;5029447;28;20041;-67
2023/10/25 02:07:57;;;;;;;9.50;5.00;;;;;;;-145.18;100.00;46650.63;5027635;28;20113;-67
2023/10/25 02:10:23;;;;;;;8.63;4.77;;;;;;;-145.18;100.00;46644.78;5030276;28;20025;-67
2023/10/25 02:12:48;;;;;;;15.50;5.30;;;;;;;-145.18;100.00;46646.72;5029761;28;20045;-66
2023/10/25 02:15:13;;;;;;;6.50;3.97;;;;;;;-145.18;100.00;46648.69;5027751;28;20033;-67
2023/10/25 02:17:39;;;;;;;6.17;4.53;;;;;;;-145.18;100.00;46644.78;5030579;28;20037;-67
2023/10/25 02:20:05;;;;;;;9.17;4.30;;;;;;;-145.18;100.00;46650.63;5030578;28;20037;-66
2023/10/25 02:22:30;;;;;;;8.03;4.63;;;;;;;-145.18;100.00;46646.72;5026856;28;20033;-66
2023/10/25 02:24:55;;;;;;;10.60;4.70;;;;;;;-145.18;100.00;46648.69;5028799;28;20037;-67
2023/10/25 02:27:22;;;;;;;8.87;4.67;;;;;;;-145.18;100.00;46646.72;5014205;28;20033;-67
2023/10/25 02:29:49;;;;;;;8.40;4.20;;;;;;;-145.18;100.00;46644.78;5033235;28;20065;-67
2023/10/25 02:32:14;;;;;;;11.40;4.03;;;;;;;-145.18;100.00;46646.72;5030468;28;20262;-67
2023/10/25 02:34:39;;;;;;;12.23;4.97;;;;;;;-145.18;100.00;46652.59;5027187;28;20362;-67
2023/10/25 02:37:05;;;;;;;11.97;4.10;;;;;;;-145.18;100.00;46646.72;5030398;28;20040;-67
2023/10/25 02:39:30;;;;;;;11.40;4.53;;;;;;;-145.18;100.00;46642.81;5031129;28;20057;-66
2023/10/25 02:41:56;;;;;;;10.53;4.10;;;;;;;-145.18;100.00;46646.72;5033779;28;20065;-67
2023/10/25 02:44:21;;;;;;;7.33;4.27;;;;;;;-145.18;100.00;46642.81;5030825;28;20481;-67
2023/10/25 02:46:47;;;;;;;5.50;4.00;;;;;;;-145.18;100.00;46644.78;5034286;28;20037;-66
2023/10/25 02:49:12;;;;;;;8.87;4.70;;;;;;;-145.18;100.00;46648.69;5031156;28;20388;-67
2023/10/25 02:51:38;;;;;;;17.17;4.73;;;;;;;-145.18;100.00;46652.59;5032043;28;20029;-66
2023/10/25 02:54:04;;;;;;;7.73;4.20;;;;;;;-145.18;100.00;46646.72;5031961;28;20033;-66
2023/10/25 02:56:30;;;;;;;6.77;3.93;;;;;;;-145.18;100.00;46648.69;5032726;28;20341;-67
2023/10/25 02:58:55;;;;;;;8.63;4.10;;;;;;;-145.18;100.00;46648.69;5030793;28;20529;-67
2023/10/25 03:01:24;;;;;;;9.53;4.07;;;;;;;-145.18;100.00;46646.72;5028791;28;20040;-66
2023/10/25 03:03:50;;;;;;;8.57;3.80;;;;;;;-145.18;100.00;46648.69;5025283;28;20098;-67
2023/10/25 03:06:15;;;;;;;6.67;3.60;;;;;;;-145.18;100.00;46646.72;5032998;28;20274;-67
2023/10/25 03:08:41;;;;;;;7.90;3.63;;;;;;;-145.18;100.00;46646.72;5031562;28;20340;-68
2023/10/25 03:11:06;;;;;;;7.57;3.17;;;;;;;-145.18;100.00;46648.69;5030459;28;20069;-67
2023/10/25 03:13:31;;;;;;;8.50;3.83;;;;;;;-145.18;100.00;46646.72;5028305;28;20040;-67
2023/10/25 03:15:57;;;;;;;10.57;3.80;;;;;;;-145.18;100.00;46648.69;5033321;28;20033;-67
2023/10/25 03:18:23;;;;;;;8.73;4.20;;;;;;;-145.18;100.00;46650.63;5030698;28;20033;-67
2023/10/25 03:20:48;;;;;;;7.87;3.60;;;;;;;-145.18;100.00;46648.69;5031501;28;20041;-67
2023/10/25 03:23:14;;;;;;;12.43;4.07;;;;;;;-145.18;100.00;46646.72;5032630;28;20032;-67
2023/10/25 03:25:39;;;;;;;9.47;3.10;;;;;;;-145.18;100.00;46648.69;5033852;28;20033;-67
2023/10/25 03:28:04;;;;;;;10.20;4.50;;;;;;;-145.18;100.00;46646.72;5031061;28;20029;-66
2023/10/25 03:30:30;;;;;;;6.73;3.23;;;;;;;-145.18;100.00;46646.72;5032069;28;20048;-67
2023/10/25 03:32:55;;;;;;;9.73;4.23;;;;;;;-145.18;100.00;46644.78;5031614;28;20033;-67
2023/10/25 03:35:20;;;;;;;8.70;2.90;;;;;;;-145.18;100.00;46644.78;5031506;28;20115;-67
2023/10/25 03:37:46;;;;;;;4.27;2.80;;;;;;;-145.18;100.00;46648.69;5033480;28;20041;-67
2023/10/25 03:40:12;;;;;;;5.23;3.10;;;;;;;-145.18;100.00;46646.72;5031367;28;20045;-67
2023/10/25 03:42:37;;;;;;;8.20;3.33;;;;;;;-145.18;100.00;46648.69;5032460;28;20021;-67
2023/10/25 03:45:06;;;;;;;10.57;3.47;;;;;;;-145.18;100.00;46640.88;5032875;28;20030;-67
2023/10/25 03:47:31;;;;;;;7.47;3.00;;;;;;;-145.18;100.00;46644.78;5033047;28;20033;-67
2023/10/25 03:49:57;;;;;;;7.07;3.80;;;;;;;-145.18;100.00;46648.69;5030495;28;20270;-66
2023/10/25 03:52:22;;;;;;;8.13;3.40;;;;;;;-145.18;100.00;46642.81;5030725;28;20026;-67
2023/10/25 03:54:48;;;;;;;9.33;3.30;;;;;;;-145.18;100.00;46644.78;5032394;28;20509;-67
2023/10/25 03:57:13;;;;;;;11.13;3.90;;;;;;;-145.18;100.00;46642.81;5031333;28;20030;-67
2023/10/25 03:59:38;;;;;;;13.53;3.57;;;;;;;-145.18;100.00;46648.69;5031971;28;20115;-67
2023/10/25 04:02:04;;;;;;;11.43;3.03;;;;;;;-145.18;100.00;46648.69;5032367;28;20052;-67
2023/10/25 04:04:29;;;;;;;8.70;3.50;;;;;;;-145.18;100.00;46644.78;5029818;28;20025;-67
2023/10/25 04:06:56;;;;;;;6.57;3.57;;;;;;;-145.18;100.00;46648.69;5022020;28;20120;-67
2023/10/25 04:09:21;;;;;;;6.63;3.60;;;;;;;-145.18;100.00;46650.63;5031133;28;20029;-67
2023/10/25 04:11:46;;;;;;;6.10;3.07;;;;;;;-145.18;100.00;46648.69;5030815;28;20278;-67
2023/10/25 04:14:12;;;;;;;8.47;3.30;;;;;;;-145.18;100.00;46648.69;5031956;28;20454;-67
2023/10/25 04:16:37;;;;;;;6.97;3.20;;;;;;;-145.18;100.00;46644.78;5027931;28;20138;-67
2023/10/25 04:19:03;;;;;;;7.50;2.80;;;;;;;-145.18;100.00;46644.78;4997274;28;20033;-67
2023/10/25 04:21:28;;;;;;;5.10;2.77;;;;;;;-145.18;100.00;46650.63;5030028;28;20043;-67
2023/10/25 04:23:53;;;;;;;6.37;3.17;;;;;;;-145.18;100.00;46648.69;5026894;28;20025;-67
2023/10/25 04:26:19;;;;;;;7.97;3.60;;;;;;;-145.18;100.00;46648.69;5030457;28;20029;-67
2023/10/25 04:28:44;;;;;;;9.87;3.20;;;;;;;-145.18;100.00;46646.72;5028335;28;20509;-67
2023/10/25 04:31:11;;;;;;;8.63;3.30;;;;;;;-145.18;100.00;46644.78;5030179;28;20048;-67
2023/10/25 04:33:37;;;;;;;7.33;2.83;;;;;;;-145.18;100.00;46652.59;5031091;28;20033;-67
2023/10/25 04:36:04;;;;;;;7.83;3.20;;;;;;;-145.18;100.00;46644.78;5024693;28;20036;-67
2023/10/25 04:38:30;;;;;;;8.53;3.30;;;;;;;-145.18;100.00;46648.69;5030676;28;20290;-67
2023/10/25 04:40:56;;;;;;;10.60;3.40;;;;;;;-145.18;100.00;46644.78;5030475;28;20771;-67
2023/10/25 04:43:21;;;;;;;10.83;3.40;;;;;;;-145.18;100.00;46646.72;5031755;28;20309;-67
2023/10/25 04:45:47;;;;;;;8.80;3.70;;;;;;;-145.18;100.00;46642.81;5031533;28;20048;-67
2023/10/25 04:48:12;;;;;;;7.83;3.43;;;;;;;-145.18;100.00;46642.81;5028174;28;20048;-67
2023/10/25 04:50:38;;;;;;;14.10;3.83;;;;;;;-145.18;100.00;46644.78;5016450;28;20025;-67
2023/10/25 04:53:05;;;;;;;9.80;3.53;;;;;;;-145.18;100.00;46640.88;5021024;28;20032;-67
2023/10/25 04:55:31;;;;;;;7.73;3.27;;;;;;;-145.18;100.00;46636.94;5022700;28;20104;-67
2023/10/25 04:57:57;;;;;;;7.03;3.87;;;;;;;-145.18;100.00;46636.94;5032624;28;20265;-67
2023/10/25 05:00:23;;;;;;;10.97;4.00;;;;;;;-145.18;100.00;46642.81;5025092;28;20022;-67
2023/10/25 05:02:49;;;;;;;11.93;4.00;;;;;;;-145.18;100.00;46642.81;5018232;28;20269;-67
2023/10/25 05:05:15;;;;;;;7.93;4.60;;;;;;;-145.18;100.00;46640.88;5015246;28;20033;-67
2023/10/25 05:07:41;;;;;;;10.50;4.27;;;;;;;-145.18;100.00;46640.88;5018752;28;20028;-68
2023/10/25 05:10:08;;;;;;;13.77;5.23;;;;;;;-145.18;100.00;46636.94;5030542;28;20497;-68
2023/10/25 05:12:41;;;;;;;9.23;4.63;;;;;;;-145.18;100.00;46636.94;5020445;28;20516;-68
2023/10/25 05:15:08;;;;;;;11.87;5.77;;;;;;;-145.18;100.00;46638.91;5023619;28;20255;-68
2023/10/25 05:17:34;;;;;;;8.77;5.13;;;;;;;-145.18;100.00;46660.41;5016820;28;20266;-68
2023/10/25 05:20:00;;;;;;;11.93;5.73;;;;;;;-145.18;100.00;46636.94;5019392;28;20325;-68
2023/10/25 05:22:28;;;;;;;11.50;5.73;;;;;;;-145.18;100.00;46635.00;5014721;28;20128;-68
2023/10/25 05:24:54;;;;;;;11.53;5.70;;;;;;;-145.18;100.00;46635.00;5018894;28;20271;-68
2023/10/25 05:27:20;;;;;;;17.97;6.23;;;;;;;-145.18;100.00;46636.94;5024571;28;20247;-68
2023/10/25 05:29:46;;;;;;;10.43;6.17;;;;;;;-145.18;100.00;46636.94;5018327;28;20088;-68
2023/10/25 05:32:17;;;;;;;11.43;5.67;;;;;;;-145.18;100.00;46660.41;5014493;28;20544;-68
2023/10/25 05:34:43;;;;;;;10.70;5.70;;;;;;;-145.18;100.00;46635.00;5031887;28;20029;-68
2023/10/25 05:37:09;;;;;;;10.77;6.23;;;;;;;-145.18;100.00;46635.00;5029765;28;20304;-68
2023/10/25 05:39:35;;;;;;;9.57;5.47;;;;;;;-145.18;100.00;46660.41;5021708;28;20054;-68
2023/10/25 05:42:04;;;;;;;15.33;6.50;;;;;;;-145.18;100.00;46660.41;5025282;28;20500;-68
2023/10/25 05:44:30;;;;;;;15.30;7.07;;;;;;;-145.18;100.00;46635.00;5029434;28;20028;-68
2023/10/25 05:46:56;;;;;;;18.73;7.83;;;;;;;-145.18;100.00;46636.94;5028119;28;20263;-68
2023/10/25 05:49:21;;;;;;;12.90;6.10;;;;;;;-145.18;100.00;46636.94;5031575;28;20112;-68
2023/10/25 05:51:47;;;;;;;11.43;5.33;;;;;;;-145.18;100.00;46640.88;5031623;28;20030;-68
2023/10/25 05:54:13;;;;;;;9.33;4.50;;;;;;;-145.18;100.00;46636.94;5029734;28;20029;-68
2023/10/25 05:56:39;;;;;;;13.53;5.27;;;;;;;-145.18;100.00;46635.00;5028677;28;20033;-68
2023/10/25 05:59:04;;;;;;;10.37;5.10;;;;;;;-145.18;100.00;46636.94;5030075;28;20056;-68
2023/10/25 06:01:54;;;;;;;10.23;4.77;;;;;;;-145.18;100.00;46642.81;5029401;28;20444;-68
2023/10/25 06:04:23;;;;;;;12.23;5.10;;;;;;;-145.18;100.00;46636.94;5030622;28;20041;-68
2023/10/25 06:06:49;;;;;;;13.60;5.43;;;;;;;-145.18;100.00;46636.94;5018445;28;20354;-68
2023/10/25 06:09:14;;;;;;;11.80;5.60;;;;;;;-145.18;100.00;46640.88;5029918;28;20025;-68
2023/10/25 06:11:41;;;;;;;11.47;5.17;;;;;;;-145.18;100.00;46640.88;5028849;28;20025;-68
2023/10/25 06:14:07;;;;;;;12.70;5.73;;;;;;;-145.18;100.00;46638.91;5017360;28;20021;-68
2023/10/25 06:16:33;;;;;;;20.23;5.97;;;;;;;-145.18;100.00;46635.00;5058806;28;20700;-68
2023/10/25 06:18:58;;;;;;;20.63;6.37;;;;;;;-145.18;100.00;46660.41;5027196;28;20120;-68
2023/10/25 06:21:24;;;;;;;13.70;6.00;;;;;;;-145.18;100.00;46635.00;5026018;28;20025;-68
2023/10/25 06:23:53;;;;;;;14.40;5.20;;;;;;;-145.18;100.00;46636.94;5026743;28;20074;-68
2023/10/25 06:26:19;;;;;;;15.33;5.30;;;;;;;-145.18;100.00;46636.94;5031284;28;20489;-68
2023/10/25 06:28:45;;;;;;;16.80;5.03;;;;;;;-145.18;100.00;46660.41;5025109;28;20342;-68
2023/10/25 06:31:11;;;;;;;21.67;6.17;;;;;;;-145.18;100.00;46660.41;5041037;28;20017;-68
2023/10/25 06:33:36;;;;;;;24.53;6.93;;;;;;;-145.18;100.00;46635.00;5026310;28;20277;-68
2023/10/25 06:36:03;;;;;;;15.10;5.43;;;;;;;-145.18;100.00;46636.94;5021967;28;20255;-68
2023/10/25 06:38:29;;;;;;;10.10;4.13;;;;;;;-145.18;100.00;46640.88;5018095;28;20034;-69
2023/10/25 06:40:54;;;;;;;12.77;4.43;;;;;;;-145.18;100.00;46660.41;5029096;28;20317;-68
2023/10/25 06:43:20;;;;;;;12.30;4.03;;;;;;;-145.18;100.00;46660.41;5025836;28;20549;-68
2023/10/25 06:45:46;;;;;;;13.20;3.70;;;;;;;-145.18;100.00;46660.41;5030917;28;20034;-68
2023/10/25 06:48:12;;;;;;;15.97;5.13;;;;;;;-145.18;100.00;46633.06;5027090;28;20045;-68
2023/10/25 06:50:37;;;;;;;15.00;5.20;;;;;;;-145.18;100.00;46660.41;5026599;28;20034;-68
2023/10/25 06:53:03;;;;;;;18.70;5.10;;;;;;;-145.18;100.00;46660.41;5022797;28;20464;-68
2023/10/25 06:55:29;;;;;;;14.43;4.97;;;;;;;-145.18;100.00;46660.41;5018204;28;20505;-68
2023/10/25 06:57:54;;;;;;;21.07;6.00;;;;;;;-145.18;100.00;46660.41;5027266;28;20181;-68
2023/10/25 07:00:22;;;;;;;18.23;6.17;;;;;;;-145.18;100.00;46660.41;5025038;28;20055;-68
2023/10/25 07:02:51;;;;;;;18.13;5.90;;;;;;;-145.18;100.00;46635.00;5030287;28;20053;-68
2023/10/25 07:05:19;;;;;;;19.47;5.50;;;;;;;-145.18;100.00;46633.06;5029509;28;20255;-68
2023/10/25 07:07:49;;;;;;;16.90;4.63;;;;;;;-145.18;100.00;46660.41;5029358;28;20300;-68
2023/10/25 07:10:14;;;;;;;8.03;3.67;;;;;;;-145.18;100.00;46660.41;5028481;28;20263;-68
2023/10/25 07:12:40;;;;;;;8.57;3.53;;;;;;;-145.18;100.00;46633.06;5031124;28;20639;-68
2023/10/25 07:15:06;;;;;;;9.07;4.00;;;;;;;-145.18;100.00;46636.94;5033923;28;20033;-68
2023/10/25 07:17:32;;;;;;;9.03;4.00;;;;;;;-145.18;100.00;46633.06;5030273;28;20513;-68
2023/10/25 07:19:58;;;;;;;9.13;3.50;;;;;;;-145.18;100.00;46633.06;5029749;28;20045;-68
2023/10/25 07:22:28;;;;;;;13.47;3.77;;;;;;;-145.18;100.00;46635.00;5031880;28;20057;-68
2023/10/25 07:24:54;;;;;;;5.20;3.57;;;;;;;-145.18;100.00;46631.09;5029458;28;20265;-68
2023/10/25 07:27:19;;;;;;;10.63;4.40;;;;;;;-145.18;100.00;46631.09;5028325;28;20401;-68
2023/10/25 07:29:45;;;;;;;9.30;4.00;;;;;;;-145.18;100.00;46660.41;5031670;28;20770;-68
2023/10/25 07:32:10;;;;;;;9.07;4.30;;;;;;;-145.18;100.00;46635.00;5028649;28;20489;-68
2023/10/25 07:34:37;;;;;;;9.63;4.70;;;;;;;-145.18;100.00;46660.41;5031249;28;20030;-68
2023/10/25 07:37:03;;;;;;;9.10;4.30;;;;;;;-145.18;100.00;46631.09;5030419;28;20044;-68
2023/10/25 07:39:29;;;;;;;8.13;3.63;;;;;;;-145.18;100.00;46635.00;5030730;28;20761;-68
2023/10/25 07:41:54;;;;;;;10.27;4.00;;;;;;;-145.18;100.00;46635.00;5038728;28;20039;-68
2023/10/25 07:44:19;;;;;;;7.07;3.50;;;;;;;-145.18;100.00;46638.91;5030711;28;20084;-68
2023/10/25 07:46:45;;;;;;;13.33;3.83;;;;;;;-145.18;100.00;46635.00;5026544;28;20436;-68
2023/10/25 07:49:10;;;;;;;10.27;3.90;;;;;;;-145.18;100.00;46633.06;5028883;28;20064;-68
2023/10/25 07:51:36;;;;;;;9.20;3.83;;;;;;;-145.18;100.00;46638.91;5023995;28;20022;-68
2023/10/25 07:54:02;;;;;;;11.33;3.90;;;;;;;-145.18;100.00;46638.91;5025220;28;20025;-68
2023/10/25 07:56:28;;;;;;;11.73;4.33;;;;;;;-145.18;100.00;46640.88;5031935;28;20025;-68
2023/10/25 07:58:54;;;;;;;11.83;4.60;;;;;;;-145.18;100.00;46636.94;5033161;28;20469;-68
2023/10/25 08:01:20;;;;;;;10.67;4.87;;;;;;;-145.18;100.00;46635.00;5033137;28;20288;-68
2023/10/25 08:03:45;;;;;;;7.10;3.70;;;;;;;-145.18;100.00;46638.91;5024480;28;20445;-68
2023/10/25 08:06:10;;;;;;;10.93;4.50;;;;;;;-145.18;100.00;46636.94;5027546;28;20029;-68
2023/10/25 08:08:36;;;;;;;7.90;3.83;;;;;;;-145.18;100.00;46646.72;5028569;28;20029;-68
2023/10/25 08:11:03;;;;;;;11.93;4.20;;;;;;;-145.18;100.00;46642.81;5020668;28;20116;-68
2023/10/25 08:13:33;;;;;;;9.33;4.47;;;;;;;-145.18;100.00;46640.88;5019921;28;20089;-68
2023/10/25 08:16:02;;;;;;;8.83;3.90;;;;;;;-145.18;100.00;46638.91;5026011;28;20263;-68
2023/10/25 08:18:29;;;;;;;10.70;4.63;;;;;;;-145.18;100.00;46638.91;5018969;28;20030;-68
2023/10/25 08:20:56;;;;;;;15.83;5.13;;;;;;;-145.18;100.00;46640.88;5016250;28;20322;-68
2023/10/25 08:23:22;;;;;;;18.23;5.67;;;;;;;-145.18;100.00;46638.91;5037405;28;20443;-68
2023/10/25 08:25:47;;;;;;;17.63;6.20;;;;;;;-145.18;100.00;46636.94;5028743;28;20121;-68
2023/10/25 08:28:14;;;;;;;13.77;4.40;;;;;;;-145.18;100.00;46635.00;5032866;28;20029;-68
2023/10/25 08:30:39;;;;;;;10.67;4.43;;;;;;;-145.18;100.00;46636.94;5029553;28;20398;-68
2023/10/25 08:33:05;;;;;;;7.63;4.50;;;;;;;-145.18;100.00;46636.94;5033232;28;20037;-68
2023/10/25 08:35:30;;;;;;;7.17;4.07;;;;;;;-145.18;100.00;46635.00;5035721;28;20060;-68
2023/10/25 08:37:55;;;;;;;13.17;4.57;;;;;;;-145.18;100.00;46636.94;5032488;28;20056;-66
2023/10/25 08:40:23;;;;;;;15.57;4.63;;;;;;;-145.18;100.00;46636.94;5031460;28;20041;-66
2023/10/25 08:42:49;;;;;;;10.23;4.40;;;;;;;-145.18;100.00;46640.88;5033010;28;20026;-66
2023/10/25 08:45:16;;;;;;;7.33;4.10;;;;;;;-145.18;100.00;46640.88;5033309;28;20465;-66
2023/10/25 08:47:41;;;;;;;10.37;4.50;;;;;;;-145.18;100.00;46636.94;5029981;28;20025;-68
2023/10/25 08:50:07;;;;;;;11.20;4.73;;;;;;;-145.18;100.00;46640.88;5028037;28;20026;-68
2023/10/25 08:52:36;;;;;;;7.20;4.13;;;;;;;-145.18;100.00;46638.91;5027764;28;20022;-68
2023/10/25 08:55:02;;;;;;;8.33;4.10;;;;;;;-145.18;100.00;46640.88;5030509;28;20057;-68
2023/10/25 08:57:29;;;;;;;13.40;3.60;;;;;;;-145.18;100.00;46640.88;5031257;28;20068;-68
2023/10/25 08:59:55;;;;;;;6.77;3.97;;;;;;;-145.18;100.00;46636.94;5031605;28;20071;-68
2023/10/25 09:02:20;;;;;;;9.20;3.67;;;;;;;-145.18;100.00;46635.00;5023112;28;20034;-68
2023/10/25 09:05:06;;;;;;;6.97;3.93;;;;;;;-145.18;100.00;46640.88;5014421;28;20025;-68
2023/10/25 09:07:36;;;;;;;;;;;;;;;-145.18;100.00;46638.91;5027237;28;20545;-68
2023/10/25 09:10:13;;;;;;;6.20;3.57;;;;;;;-145.18;100.00;46640.88;5018586;28;19909;-68
2023/10/25 09:12:38;;;;;;;7.73;3.93;;;;;;;-145.18;100.00;46636.94;5027161;28;20053;-69
2023/10/25 09:15:04;;;;;;;8.30;4.10;;;;;;;-145.18;100.00;46636.94;5032797;28;20492;-68
2023/10/25 09:17:34;;;;;;;7.87;4.50;;;;;;;-145.18;100.00;46640.88;5036887;28;20025;-68
2023/10/25 09:19:59;;;;;;;12.63;4.30;;;;;;;-145.18;100.00;46636.94;5029755;28;20025;-68
2023/10/25 09:22:27;;;;;;;10.40;4.97;;;;;;;-145.18;100.00;46636.94;5029528;28;20109;-68
2023/10/25 09:25:02;;;;;;;9.50;5.60;;;;;;;-145.18;100.00;46640.88;5028961;28;20055;-68
2023/10/25 09:27:28;;;;;;;13.75;4.97;;;;;;;-145.18;100.00;46636.94;5020391;28;20508;-68
2023/10/25 09:30:10;;;;;;;7.97;5.00;;;;;;;-145.18;100.00;46640.88;5021544;28;20034;-68
2023/10/25 09:32:35;;;;;;;7.63;4.57;;;;;;;-145.18;100.00;46636.94;5026697;28;20025;-68
2023/10/25 09:35:01;;;;;;;10.43;5.10;;;;;;;-145.18;100.00;46631.09;5020291;28;20040;-68
2023/10/25 09:37:27;;;;;;;10.50;4.57;;;;;;;-145.18;100.00;46631.09;5014294;28;20025;-68
2023/10/25 09:39:52;;;;;;;6.57;4.90;;;;;;;-145.18;100.00;46633.06;5022041;28;20580;-68
2023/10/25 09:42:25;;;;;;;12.50;4.93;;;;;;;-145.18;100.00;46633.06;5020920;28;20029;-68
2023/10/25 09:44:57;;;;;;;9.63;4.73;;;;;;;-145.18;100.00;46633.06;5017581;28;20030;-68
2023/10/25 09:47:28;;;;;;;10.40;5.20;;;;;;;-145.18;100.00;46635.00;5018075;28;20014;-66
2023/10/25 09:50:02;;;;;;;15.67;5.27;;;;;;;-145.18;100.00;46635.00;5026365;28;20028;-66
2023/10/25 09:52:30;;;;;;;6.97;4.97;;;;;;;-145.18;100.00;46633.06;5031582;28;20025;-66
2023/10/25 09:55:05;;;;;;;5.70;4.30;;;;;;;-145.18;100.00;46635.00;5030318;28;20026;-66
2023/10/25 09:57:32;;;;;;;10.10;5.00;;;;;;;-145.18;100.00;46633.06;5036073;28;20033;-66
2023/10/25 09:59:59;;;;;;;7.63;4.50;;;;;;;-145.18;100.00;46638.91;5031860;28;20101;-65
2023/10/25 10:02:50;;;;;;;8.30;4.37;;;;;;;-145.18;100.00;46636.94;5027567;28;20244;-65
2023/10/25 10:05:27;;;;;;;7.80;4.10;;;;;;;-145.18;100.00;46633.06;5028056;28;20066;-65
2023/10/25 10:08:05;;;;;;;8.30;4.73;;;;;;;-145.18;100.00;46633.06;5036296;28;20025;-65
2023/10/25 10:10:45;;;;;;;10.17;4.80;;;;;;;-145.18;100.00;46638.91;5015739;28;20034;-65
2023/10/25 10:13:19;;;;;;;7.67;5.20;;;;;;;-145.18;100.00;46631.09;5026101;28;20083;-65
2023/10/25 10:16:04;;;;;;;12.50;5.37;;;;;;;-145.18;100.00;46627.19;5025764;28;20052;-65
2023/10/25 10:18:33;;;;;;;10.47;5.97;;;;;;;-145.18;100.00;46631.09;5016316;28;20030;-65
2023/10/25 10:21:03;;;;;;;10.43;5.33;;;;;;;-145.18;100.00;46635.00;5019180;28;20029;-65
2023/10/25 10:23:51;;;;;;;10.33;6.33;;;;;;;-145.18;100.00;46633.06;5024964;28;20021;-65
2023/10/25 10:26:46;;;;;;;10.10;6.37;;;;;;;-145.18;100.00;46629.13;5018349;28;20486;-65
2023/10/25 10:29:47;;;;;;;13.20;6.17;;;;;;;-145.18;100.00;46629.13;5017569;28;20025;-65
2023/10/25 10:32:13;;;;;;;11.93;5.83;;;;;;;-145.18;100.00;46633.06;5008372;28;20560;-65
2023/10/25 10:34:46;;;;;;;11.07;5.90;;;;;;;-145.18;100.00;46629.13;5015369;28;20404;-65
2023/10/25 10:37:11;;;;;;;8.67;5.90;;;;;;;-145.18;100.00;46633.06;5021592;28;20028;-65
2023/10/25 10:39:57;;;;;;;9.40;5.97;;;;;;;-145.18;100.00;46629.13;5023409;28;20421;-65
2023/10/25 10:42:41;;;;;;;9.27;5.47;;;;;;;-145.18;100.00;46636.94;5019984;28;20080;-65
2023/10/25 10:45:29;;;;;;;11.60;6.17;;;;;;;-145.18;100.00;46633.06;5024326;28;20037;-65
2023/10/25 10:48:06;;;;;;;16.63;6.47;;;;;;;-145.18;100.00;46631.09;5028141;28;20112;-64
2023/10/25 10:50:32;;;;;;;8.37;5.53;;;;;;;-145.18;100.00;46633.06;5024330;28;20059;-65
2023/10/25 10:52:59;;;;;;;8.93;5.53;;;;;;;-145.18;100.00;46633.06;5022468;28;20117;-65
2023/10/25 10:55:25;;;;;;;10.93;6.77;;;;;;;-145.18;100.00;46629.13;5022951;28;20036;-65
2023/10/25 10:57:51;;;;;;;9.80;6.90;;;;;;;-145.18;100.00;46631.09;5031598;28;20037;-68
2023/10/25 11:00:18;;;;;;;8.83;6.83;;;;;;;-145.18;100.00;46631.09;5032167;28;20419;-67
2023/10/25 11:02:48;;;;;;;9.80;6.37;;;;;;;-145.18;100.00;46631.09;5021206;28;20049;-67
2023/10/25 11:05:22;;;;;;;14.03;7.03;;;;;;;-145.18;100.00;46635.00;5039189;28;20089;-67